createdAt,value
2019-03-31T00:01:08.381Z,61.55
2019-03-31T00:03:39.560Z,62.60
2019-03-31T00:06:13.772Z,61.85
2019-03-31T00:08:49.127Z,61.33
2019-03-31T00:11:22.490Z,63.40
2019-03-31T00:13:56.430Z,61.65
2019-03-31T00:16:30.749Z,63.98
2019-03-31T00:19:04.805Z,62.25
2019-03-31T00:21:38.216Z,64.25
2019-03-31T00:24:12.129Z,63.78
2019-03-31T00:26:45.888Z,65.05
2019-03-31T00:29:19.593Z,61.75
2019-03-31T00:31:53.150Z,64.15
2019-03-31T00:34:27.062Z,64.35
2019-03-31T00:37:00.481Z,65.35
2019-03-31T00:39:33.746Z,63.45
2019-03-31T00:42:07.266Z,65.70
2019-03-31T00:47:38.464Z,63.05
2019-03-31T00:54:06.390Z,59.55
2019-03-31T00:56:42.349Z,59.93
2019-03-31T00:59:18.404Z,60.58
2019-03-31T01:01:53.330Z,61.02
2019-03-31T01:04:29.086Z,59.48
2019-03-31T01:07:02.756Z,65.40
2019-03-31T01:09:37.584Z,64.95
2019-03-31T01:12:12.173Z,61.68
2019-03-31T01:14:47.122Z,63.75
2019-03-31T01:17:22.591Z,66.35
2019-03-31T01:19:58.153Z,65.10
2019-03-31T01:22:31.764Z,63.30
2019-03-31T01:25:05.857Z,65.80
2019-03-31T01:27:43.199Z,62.23
2019-03-31T01:30:19.638Z,61.58
2019-03-31T01:32:54.054Z,60.90
2019-03-31T01:35:29.804Z,66.42
2019-03-31T01:38:03.461Z,61.10
2019-03-31T01:40:38.097Z,65.28
2019-03-31T01:43:13.621Z,80.32
2019-03-31T01:45:48.448Z,71.80
2019-03-31T01:48:21.747Z,62.15
2019-03-31T01:51:03.788Z,63.48
2019-03-31T01:53:37.124Z,63.87
2019-03-31T01:56:10.723Z,66.35
2019-03-31T01:58:44.196Z,65.20
2019-03-31T02:01:19.146Z,64.35
2019-03-31T02:03:52.675Z,65.60
2019-03-31T02:06:28.964Z,71.28
2019-03-31T02:09:03.305Z,67.53
2019-03-31T02:11:37.680Z,66.10
2019-03-31T02:14:11.008Z,63.92
2019-03-31T02:16:44.705Z,63.33
2019-03-31T02:19:20.161Z,66.10
2019-03-31T02:21:54.932Z,65.30
2019-03-31T02:24:28.539Z,65.80
2019-03-31T02:27:02.735Z,64.67
2019-03-31T02:29:35.998Z,68.57
2019-03-31T02:32:23.131Z,63.73
2019-03-31T02:34:45.611Z,67.85
2019-03-31T02:37:20.663Z,64.60
2019-03-31T02:39:55.815Z,66.55
2019-03-31T02:42:29.175Z,64.00
2019-03-31T02:45:02.568Z,66.53
2019-03-31T02:47:36.531Z,63.70
2019-03-31T02:50:10.046Z,67.80
2019-03-31T02:52:47.198Z,67.80
2019-03-31T02:55:20.889Z,66.60
2019-03-31T02:57:54.513Z,65.97
2019-03-31T03:00:28.029Z,66.87
2019-03-31T03:03:02.555Z,69.70
2019-03-31T03:05:37.695Z,69.10
2019-03-31T03:08:12.118Z,66.75
2019-03-31T03:10:47.228Z,67.00
2019-03-31T03:13:22.049Z,27.07
2019-03-31T03:16:00.440Z,68.83
2019-03-31T03:18:36.293Z,72.30
2019-03-31T03:21:14.233Z,55.83
2019-03-31T03:23:49.535Z,56.85
2019-03-31T03:26:23.788Z,71.25
2019-03-31T03:28:58.845Z,68.25
2019-03-31T03:31:32.937Z,48.87
2019-03-31T03:34:06.334Z,35.35
2019-03-31T03:36:43.151Z,72.50
2019-03-31T03:39:15.028Z,31.02
2019-03-31T03:41:48.593Z,17.15
2019-03-31T03:44:22.523Z,46.92
2019-03-31T03:47:02.318Z,28.55
2019-03-31T03:49:37.245Z,20.85
2019-03-31T03:52:10.602Z,30.60
2019-03-31T03:54:44.407Z,31.97
2019-03-31T03:57:21.226Z,25.92
2019-03-31T03:59:54.561Z,22.73
2019-03-31T04:02:28.158Z,40.45
2019-03-31T04:05:02.184Z,45.52
2019-03-31T04:07:35.923Z,43.85
2019-03-31T04:10:11.497Z,54.13
2019-03-31T04:12:48.510Z,67.10
2019-03-31T04:15:21.776Z,28.10
2019-03-31T04:17:55.183Z,49.60
2019-03-31T04:20:28.544Z,52.17
2019-03-31T04:23:04.797Z,59.75
2019-03-31T04:25:43.657Z,63.73
2019-03-31T04:28:18.166Z,69.25
2019-03-31T04:30:51.399Z,58.42
2019-03-31T04:33:24.727Z,54.88
2019-03-31T04:35:59.627Z,19.07
2019-03-31T04:38:33.818Z,36.60
2019-03-31T04:41:09.234Z,64.53
2019-03-31T04:43:43.038Z,41.53
2019-03-31T04:46:16.341Z,46.33
2019-03-31T04:48:52.678Z,66.72
2019-03-31T04:51:24.973Z,61.33
2019-03-31T04:53:58.347Z,41.80
2019-03-31T04:56:44.113Z,60.60
2019-03-31T04:59:17.768Z,54.48
2019-03-31T05:01:51.210Z,62.05
2019-03-31T05:04:26.054Z,28.12
2019-03-31T05:07:03.662Z,35.30
2019-03-31T05:09:36.922Z,60.33
2019-03-31T05:12:10.264Z,54.55
2019-03-31T05:14:43.568Z,65.35
2019-03-31T05:17:16.911Z,54.35
2019-03-31T05:19:50.434Z,63.70
2019-03-31T05:22:23.843Z,61.88
2019-03-31T05:25:00.108Z,40.35
2019-03-31T05:27:34.531Z,26.97
2019-03-31T05:30:09.192Z,33.88
2019-03-31T05:32:42.739Z,35.03
2019-03-31T05:35:16.077Z,35.15
2019-03-31T05:37:52.987Z,41.28
2019-03-31T05:40:26.249Z,47.08
2019-03-31T05:43:00.884Z,53.98
2019-03-31T05:45:37.147Z,59.48
2019-03-31T05:48:12.536Z,57.80
2019-03-31T05:50:46.462Z,54.98
2019-03-31T05:53:19.891Z,36.75
2019-03-31T05:55:58.461Z,48.48
2019-03-31T05:58:31.600Z,52.98
2019-03-31T06:01:06.607Z,49.67
2019-03-31T06:03:41.691Z,33.90
2019-03-31T06:06:16.285Z,46.08
2019-03-31T06:08:50.070Z,35.13
2019-03-31T06:11:23.697Z,46.65
2019-03-31T06:13:58.463Z,21.05
2019-03-31T06:16:34.266Z,24.30
2019-03-31T06:19:07.859Z,46.10
2019-03-31T06:21:41.892Z,25.00
2019-03-31T06:24:15.336Z,36.17
2019-03-31T06:26:48.952Z,64.35
2019-03-31T06:29:22.651Z,68.55
2019-03-31T06:31:56.295Z,40.40
2019-03-31T06:34:30.119Z,51.40
2019-03-31T06:37:04.451Z,51.15
2019-03-31T06:39:37.895Z,31.57
2019-03-31T06:42:11.864Z,37.60
2019-03-31T06:44:45.423Z,55.17
2019-03-31T06:47:20.140Z,35.88
2019-03-31T06:49:53.755Z,28.85
2019-03-31T06:52:26.987Z,23.92
2019-03-31T06:55:00.424Z,65.55
2019-03-31T06:57:33.814Z,59.88
2019-03-31T07:00:09.400Z,34.53
2019-03-31T07:02:42.837Z,30.35
2019-03-31T07:05:16.279Z,33.15
2019-03-31T07:07:49.533Z,48.80
2019-03-31T07:10:23.285Z,50.75
2019-03-31T07:12:59.571Z,57.08
2019-03-31T07:15:31.834Z,56.30
2019-03-31T07:18:05.250Z,51.80
2019-03-31T07:20:38.966Z,26.73
2019-03-31T07:23:12.415Z,52.67
2019-03-31T07:25:46.029Z,52.00
2019-03-31T07:28:19.828Z,48.00
2019-03-31T07:30:53.213Z,49.58
2019-03-31T07:33:26.494Z,49.13
2019-03-31T07:36:00.414Z,46.80
2019-03-31T07:38:39.256Z,39.60
2019-03-31T07:41:12.866Z,43.73
2019-03-31T07:43:43.907Z,21.90
2019-03-31T07:46:17.568Z,44.93
2019-03-31T07:48:50.801Z,45.80
2019-03-31T07:51:24.597Z,41.48
2019-03-31T07:53:57.872Z,40.50
2019-03-31T07:56:31.317Z,35.68
2019-03-31T07:59:05.501Z,39.78
2019-03-31T08:01:39.930Z,41.92
2019-03-31T08:04:15.511Z,40.70
2019-03-31T08:06:50.208Z,38.75
2019-03-31T08:09:23.420Z,23.75
2019-03-31T08:11:58.111Z,36.30
2019-03-31T08:14:35.010Z,35.15
2019-03-31T08:17:11.519Z,36.83
2019-03-31T08:19:44.308Z,32.17
2019-03-31T08:22:17.977Z,16.75
2019-03-31T08:24:51.268Z,21.82
2019-03-31T08:27:24.665Z,19.42
2019-03-31T08:30:00.798Z,38.73
2019-03-31T08:32:32.754Z,37.10
2019-03-31T08:35:06.732Z,22.02
2019-03-31T08:37:40.531Z,33.48
2019-03-31T08:40:14.573Z,41.08
2019-03-31T08:42:48.548Z,37.28
2019-03-31T08:45:21.905Z,37.45
2019-03-31T08:47:59.891Z,39.48
2019-03-31T08:50:34.874Z,33.40
2019-03-31T08:53:08.228Z,36.53
2019-03-31T08:55:41.441Z,38.10
2019-03-31T08:58:15.184Z,41.42
2019-03-31T09:00:49.568Z,35.05
2019-03-31T09:03:23.064Z,37.67
2019-03-31T09:06:02.286Z,38.53
2019-03-31T09:08:31.173Z,38.53
2019-03-31T09:11:05.816Z,37.65
2019-03-31T09:13:39.514Z,34.60
2019-03-31T09:16:12.972Z,39.10
2019-03-31T09:18:46.282Z,37.45
2019-03-31T09:21:21.176Z,37.25
2019-03-31T09:23:54.432Z,39.20
2019-03-31T09:26:28.123Z,39.92
2019-03-31T09:29:01.669Z,39.78
2019-03-31T09:31:35.399Z,39.50
2019-03-31T09:34:08.559Z,42.45
2019-03-31T09:36:42.545Z,43.58
2019-03-31T09:39:15.736Z,41.55
2019-03-31T09:41:49.490Z,38.60
2019-03-31T09:44:22.687Z,40.00
2019-03-31T09:46:56.352Z,41.10
2019-03-31T09:49:29.579Z,40.55
2019-03-31T09:52:04.194Z,42.03
2019-03-31T09:54:37.489Z,39.23
2019-03-31T09:57:11.138Z,39.03
2019-03-31T09:59:44.319Z,35.78
2019-03-31T10:02:18.938Z,36.42
2019-03-31T10:04:52.326Z,39.27
2019-03-31T10:07:26.649Z,40.45
2019-03-31T10:10:04.412Z,41.65
2019-03-31T10:12:38.419Z,39.80
2019-03-31T10:15:12.020Z,38.60
2019-03-31T10:17:45.471Z,42.38
2019-03-31T10:20:19.043Z,42.10
2019-03-31T10:22:53.165Z,38.15
2019-03-31T10:25:26.684Z,39.80
2019-03-31T10:27:59.990Z,37.40
2019-03-31T10:30:40.816Z,39.90
2019-03-31T10:33:17.683Z,38.75
2019-03-31T10:35:50.924Z,39.53
2019-03-31T10:38:25.598Z,38.38
2019-03-31T10:40:59.116Z,40.60
2019-03-31T10:43:34.525Z,40.43
2019-03-31T10:46:08.957Z,39.73
2019-03-31T10:48:43.024Z,42.17
2019-03-31T10:51:20.585Z,38.10
2019-03-31T10:53:54.653Z,41.35
2019-03-31T10:56:30.792Z,38.90
2019-03-31T10:59:04.143Z,41.37
2019-03-31T11:01:39.232Z,42.45
2019-03-31T11:04:13.015Z,41.20
2019-03-31T11:06:58.419Z,40.92
2019-03-31T11:09:22.647Z,41.18
2019-03-31T11:11:57.780Z,41.63
2019-03-31T11:14:32.215Z,40.70
2019-03-31T11:17:05.704Z,43.98
2019-03-31T11:19:40.222Z,43.50
2019-03-31T11:22:17.638Z,45.45
2019-03-31T11:24:51.694Z,44.45
2019-03-31T11:27:24.994Z,45.67
2019-03-31T11:29:58.558Z,48.20
2019-03-31T11:32:31.953Z,42.70
2019-03-31T11:35:09.182Z,56.63
2019-03-31T11:37:42.490Z,60.45
2019-03-31T11:40:21.960Z,62.00
2019-03-31T11:42:57.020Z,55.58
2019-03-31T11:45:32.547Z,54.05
2019-03-31T11:48:07.766Z,45.35
2019-03-31T11:50:40.599Z,44.18
2019-03-31T11:53:14.958Z,45.55
2019-03-31T11:55:58.818Z,47.33
2019-03-31T11:58:30.696Z,48.48
2019-03-31T12:01:04.965Z,46.70
2019-03-31T12:03:38.582Z,48.95
2019-03-31T12:06:12.237Z,42.95
2019-03-31T12:08:46.963Z,44.25
2019-03-31T12:11:21.773Z,46.60
2019-03-31T12:13:56.626Z,48.92
2019-03-31T12:16:31.329Z,49.10
2019-03-31T12:19:05.887Z,49.88
2019-03-31T12:21:39.551Z,48.28
2019-03-31T12:24:14.229Z,49.50
2019-03-31T12:26:47.645Z,49.15
2019-03-31T12:29:22.238Z,48.02
2019-03-31T12:31:55.604Z,47.62
2019-03-31T12:34:29.933Z,49.35
2019-03-31T12:37:06.629Z,47.05
2019-03-31T12:39:39.901Z,52.67
2019-03-31T12:42:13.673Z,47.20
2019-03-31T12:44:48.187Z,53.60
2019-03-31T12:47:22.035Z,49.58
2019-03-31T12:49:55.439Z,50.98
2019-03-31T12:52:29.175Z,50.80
2019-03-31T12:55:10.802Z,49.65
2019-03-31T12:57:45.511Z,49.40
2019-03-31T13:00:19.304Z,49.60
2019-03-31T13:02:53.063Z,47.43
2019-03-31T13:05:26.542Z,49.40
2019-03-31T13:08:00.253Z,47.55
2019-03-31T13:10:35.315Z,49.67
2019-03-31T13:13:10.022Z,49.08
2019-03-31T13:15:43.413Z,48.73
2019-03-31T13:18:19.616Z,46.88
2019-03-31T13:20:55.820Z,45.58
2019-03-31T13:23:30.626Z,49.23
2019-03-31T13:26:04.796Z,42.10
2019-03-31T13:28:38.264Z,44.95
2019-03-31T13:31:11.536Z,42.70
2019-03-31T13:33:48.722Z,46.75
2019-03-31T13:36:22.601Z,46.70
2019-03-31T13:38:56.388Z,47.60
2019-03-31T13:41:30.269Z,44.98
2019-03-31T13:44:05.312Z,46.42
2019-03-31T13:46:39.559Z,46.00
2019-03-31T13:49:12.955Z,44.25
2019-03-31T13:51:46.497Z,45.98
2019-03-31T13:54:20.488Z,46.35
2019-03-31T13:56:56.556Z,46.68
2019-03-31T13:59:30.496Z,45.73
2019-03-31T14:02:03.866Z,47.55
2019-03-31T14:04:50.962Z,45.08
2019-03-31T14:07:13.186Z,48.45
2019-03-31T14:09:46.742Z,46.18
2019-03-31T14:12:23.263Z,49.05
2019-03-31T14:14:56.658Z,47.95
2019-03-31T14:17:33.673Z,46.18
2019-03-31T14:20:09.036Z,46.13
2019-03-31T14:22:42.361Z,45.45
2019-03-31T14:25:17.368Z,47.10
2019-03-31T14:27:52.651Z,44.38
2019-03-31T14:30:25.870Z,42.05
2019-03-31T14:33:00.411Z,42.75
2019-03-31T14:35:43.890Z,45.75
2019-03-31T14:38:18.572Z,45.35
2019-03-31T14:40:52.437Z,44.25
2019-03-31T14:43:27.991Z,41.53
2019-03-31T14:46:01.076Z,42.17
2019-03-31T14:48:34.804Z,40.55
2019-03-31T14:51:08.486Z,39.48
2019-03-31T14:53:44.843Z,41.50
2019-03-31T14:56:18.984Z,41.77
2019-03-31T14:58:53.071Z,39.30
2019-03-31T15:01:29.312Z,38.53
2019-03-31T15:04:03.162Z,38.40
2019-03-31T15:06:41.950Z,41.68
2019-03-31T15:09:17.272Z,39.48
2019-03-31T15:11:52.741Z,39.75
2019-03-31T15:14:26.664Z,38.40
2019-03-31T15:17:00.370Z,40.23
2019-03-31T15:19:33.797Z,38.83
2019-03-31T15:22:07.539Z,36.90
2019-03-31T15:24:41.360Z,37.25
2019-03-31T15:27:16.029Z,23.27
2019-03-31T15:29:50.015Z,39.10
2019-03-31T15:32:23.845Z,23.40
2019-03-31T15:34:57.471Z,11.48
2019-03-31T15:37:30.993Z,33.63
2019-03-31T15:40:05.565Z,26.82
2019-03-31T15:42:42.336Z,35.55
2019-03-31T15:45:15.951Z,35.10
2019-03-31T15:47:49.232Z,36.98
2019-03-31T15:50:23.173Z,36.65
2019-03-31T15:52:57.709Z,36.17
2019-03-31T15:55:31.303Z,37.88
2019-03-31T15:58:06.645Z,36.08
2019-03-31T16:00:40.730Z,36.83
2019-03-31T16:03:14.345Z,38.55
2019-03-31T16:05:50.468Z,38.05
2019-03-31T16:08:26.674Z,37.90
2019-03-31T16:11:04.954Z,37.93
2019-03-31T16:13:40.580Z,39.83
2019-03-31T16:16:14.280Z,40.50
2019-03-31T16:18:49.535Z,40.40
2019-03-31T16:21:22.509Z,39.35
2019-03-31T16:23:55.991Z,42.50
2019-03-31T16:26:29.998Z,41.42
2019-03-31T16:29:03.401Z,37.00
2019-03-31T16:31:37.482Z,42.30
2019-03-31T16:34:11.454Z,30.95
2019-03-31T16:36:45.931Z,42.62
2019-03-31T16:39:19.771Z,39.33
2019-03-31T16:41:53.441Z,38.83
2019-03-31T16:44:27.099Z,37.60
2019-03-31T16:47:01.022Z,38.25
2019-03-31T16:49:34.578Z,32.53
2019-03-31T16:52:07.872Z,39.30
2019-03-31T16:54:45.999Z,41.25
2019-03-31T16:57:23.019Z,42.35
2019-03-31T16:59:56.599Z,38.73
2019-03-31T17:02:31.897Z,35.17
2019-03-31T17:05:05.564Z,43.87
2019-03-31T17:07:39.082Z,41.98
2019-03-31T17:10:14.453Z,42.33
2019-03-31T17:12:48.603Z,42.50
2019-03-31T17:15:22.210Z,43.78
2019-03-31T17:17:56.847Z,41.95
2019-03-31T17:20:30.515Z,43.80
2019-03-31T17:23:05.369Z,40.75
2019-03-31T17:25:38.863Z,42.38
2019-03-31T17:28:12.527Z,42.65
2019-03-31T17:30:46.800Z,42.33
2019-03-31T17:33:20.573Z,40.98
2019-03-31T17:35:53.741Z,41.90
2019-03-31T17:38:27.632Z,40.73
2019-03-31T17:41:01.691Z,42.83
2019-03-31T17:43:35.810Z,44.40
2019-03-31T17:46:09.013Z,42.73
2019-03-31T17:48:42.630Z,42.98
2019-03-31T17:51:15.807Z,42.25
2019-03-31T17:53:49.560Z,39.05
2019-03-31T17:56:22.754Z,40.83
2019-03-31T17:58:56.205Z,42.88
2019-03-31T18:01:29.440Z,42.38
2019-03-31T18:04:03.497Z,37.40
2019-03-31T18:06:36.860Z,37.60
2019-03-31T18:12:36.595Z,41.00
2019-03-31T18:15:11.718Z,38.45
2019-03-31T18:17:45.874Z,42.03
2019-03-31T18:20:19.768Z,40.03
2019-03-31T18:22:54.184Z,38.42
2019-03-31T18:25:27.908Z,40.40
2019-03-31T18:28:01.399Z,37.88
2019-03-31T18:30:35.146Z,42.93
2019-03-31T18:33:08.511Z,42.88
2019-03-31T18:35:42.539Z,42.27
2019-03-31T18:38:16.202Z,42.35
2019-03-31T18:40:49.599Z,42.38
2019-03-31T18:43:22.986Z,40.60
2019-03-31T18:45:56.439Z,41.85
2019-03-31T18:48:30.478Z,39.27
2019-03-31T18:51:04.237Z,41.88
2019-03-31T18:53:48.534Z,39.92
2019-03-31T18:56:39.214Z,38.63
2019-03-31T18:59:13.696Z,41.65
2019-03-31T19:02:03.741Z,36.58
2019-03-31T19:04:38.359Z,40.55
2019-03-31T19:07:21.743Z,39.05
2019-03-31T19:10:24.018Z,42.25
2019-03-31T19:13:02.736Z,40.50
2019-03-31T19:15:40.406Z,42.23
2019-03-31T19:18:26.594Z,38.33
2019-03-31T19:21:11.187Z,42.90
2019-03-31T19:23:40.939Z,43.28
2019-03-31T19:26:18.978Z,44.20
2019-03-31T19:29:06.539Z,43.23
2019-03-31T19:31:58.063Z,42.55
2019-03-31T19:34:32.971Z,41.98
2019-03-31T19:37:13.565Z,44.33
2019-03-31T19:39:51.167Z,43.50
2019-03-31T19:42:37.662Z,42.70
2019-03-31T19:45:27.563Z,46.23
2019-03-31T19:48:11.191Z,46.00
2019-03-31T19:50:54.809Z,45.25
2019-03-31T19:53:32.665Z,42.60
2019-03-31T19:56:23.423Z,46.35
2019-03-31T19:59:13.758Z,42.83
2019-03-31T20:01:52.062Z,44.73
2019-03-31T20:04:35.681Z,43.92
2019-03-31T20:07:10.994Z,43.38
2019-03-31T20:09:48.601Z,39.65
2019-03-31T20:12:26.577Z,37.03
2019-03-31T20:15:01.002Z,41.45
2019-03-31T20:17:35.949Z,41.00
2019-03-31T20:20:20.170Z,40.95
2019-03-31T20:22:54.688Z,40.17
2019-03-31T20:25:31.540Z,39.50
2019-03-31T20:28:06.141Z,39.85
2019-03-31T20:30:52.783Z,42.73
2019-03-31T20:33:43.111Z,38.67
2019-03-31T20:36:20.454Z,40.75
2019-03-31T20:38:55.652Z,39.92
2019-03-31T20:41:33.442Z,40.90
2019-03-31T20:44:07.138Z,42.90
2019-03-31T20:46:40.820Z,42.45
2019-03-31T20:49:14.095Z,42.78
2019-03-31T20:51:48.550Z,43.15
2019-03-31T20:54:22.257Z,41.33
2019-03-31T20:56:55.904Z,40.65
2019-03-31T20:59:29.628Z,41.18
2019-03-31T21:02:04.238Z,41.20
2019-03-31T21:04:37.794Z,43.38
2019-03-31T21:07:11.375Z,42.67
2019-03-31T21:09:45.460Z,36.40
2019-03-31T21:12:19.144Z,43.50
2019-03-31T21:14:52.830Z,42.98
2019-03-31T21:17:26.294Z,41.53
2019-03-31T21:20:00.856Z,43.17
2019-03-31T21:22:34.550Z,40.40
2019-03-31T21:25:09.067Z,39.13
2019-03-31T21:27:43.385Z,44.03
2019-03-31T21:30:17.307Z,40.58
2019-03-31T21:32:51.220Z,41.68
2019-03-31T21:35:26.173Z,41.13
2019-03-31T21:38:00.539Z,39.60
2019-03-31T21:40:34.393Z,43.85
2019-03-31T21:43:08.690Z,41.23
2019-03-31T21:45:42.628Z,43.13
2019-03-31T21:48:15.941Z,41.80
2019-03-31T21:50:49.633Z,40.28
2019-03-31T21:53:22.961Z,37.60
2019-03-31T21:55:56.299Z,40.40
2019-03-31T21:58:29.633Z,41.75
2019-03-31T22:01:03.204Z,37.95
2019-03-31T22:03:37.461Z,39.08
2019-03-31T22:06:11.170Z,40.12
2019-03-31T22:08:44.484Z,38.85
2019-03-31T22:11:18.445Z,39.25
2019-03-31T22:13:51.670Z,40.58
2019-03-31T22:16:25.455Z,39.80
2019-03-31T22:18:59.098Z,42.25
2019-03-31T22:21:32.786Z,41.33
2019-03-31T22:24:06.082Z,39.35
2019-03-31T22:26:39.508Z,37.70
2019-03-31T22:29:12.964Z,41.02
2019-03-31T22:31:46.838Z,40.63
2019-03-31T22:34:20.663Z,40.25
2019-03-31T22:36:54.930Z,38.05
2019-03-31T22:39:28.835Z,38.75
2019-03-31T22:42:02.496Z,35.65
2019-03-31T22:44:36.234Z,37.03
2019-03-31T22:47:09.543Z,37.17
2019-03-31T22:49:43.303Z,37.10
2019-03-31T22:52:16.535Z,34.73
2019-03-31T22:54:50.229Z,32.48
2019-03-31T22:57:23.542Z,34.18
2019-03-31T22:59:57.021Z,33.98
2019-03-31T23:02:30.561Z,33.75
2019-03-31T23:05:04.097Z,36.17
2019-03-31T23:07:37.684Z,35.73
2019-03-31T23:10:11.557Z,33.70
2019-03-31T23:12:45.391Z,37.28
2019-03-31T23:15:18.725Z,38.33
2019-03-31T23:17:52.412Z,37.73
2019-03-31T23:20:25.917Z,38.35
2019-03-31T23:22:59.313Z,38.02
2019-03-31T23:25:32.961Z,34.70
2019-03-31T23:28:06.436Z,34.98
2019-03-31T23:30:40.029Z,35.20
2019-03-31T23:33:13.573Z,34.50
2019-03-31T23:35:46.875Z,36.93
2019-03-31T23:38:20.518Z,36.20
2019-03-31T23:40:54.133Z,34.00
2019-03-31T23:43:27.658Z,33.55
2019-03-31T23:46:00.955Z,36.28
2019-03-31T23:48:34.209Z,36.00
2019-03-31T23:51:07.878Z,37.03
2019-03-31T23:53:41.145Z,32.25
2019-03-31T23:56:14.666Z,32.38
2019-03-31T23:58:57.184Z,34.27
